createdAt,value
2022-11-27T00:01:34.731Z,-4.32
2022-11-27T00:04:03.410Z,-4.62
2022-11-27T00:06:32.635Z,-3.57
2022-11-27T00:09:01.964Z,-3.82
2022-11-27T00:11:31.782Z,-3.99
2022-11-27T00:14:02.522Z,-3.73
2022-11-27T00:16:31.200Z,-4.43
2022-11-27T00:18:59.186Z,-4.40
2022-11-27T00:21:31.706Z,-4.36
2022-11-27T00:24:05.949Z,-4.78
2022-11-27T00:26:37.858Z,-4.49
2022-11-27T00:29:07.984Z,-4.21
2022-11-27T00:31:37.962Z,-4.47
2022-11-27T00:34:08.964Z,-4.52
2022-11-27T00:36:38.259Z,-4.63
2022-11-27T00:39:07.091Z,-4.27
2022-11-27T00:41:35.797Z,-4.52
2022-11-27T00:44:04.630Z,-3.93
2022-11-27T00:46:34.482Z,-4.81
2022-11-27T00:49:04.739Z,-3.82
2022-11-27T00:51:36.279Z,-4.79
2022-11-27T00:54:04.974Z,-4.29
2022-11-27T00:56:36.763Z,-4.48
2022-11-27T00:59:06.474Z,-3.44
2022-11-27T01:01:38.897Z,-3.40
2022-11-27T01:04:13.297Z,-3.69
2022-11-27T01:06:42.371Z,-3.50
2022-11-27T01:09:12.779Z,-3.31
2022-11-27T01:11:44.003Z,-3.65
2022-11-27T01:14:16.999Z,-3.53
2022-11-27T01:16:48.024Z,-3.93
2022-11-27T01:19:17.400Z,-4.59
2022-11-27T01:21:46.000Z,-4.61
2022-11-27T01:24:15.793Z,-3.90
2022-11-27T01:26:45.018Z,-3.68
2022-11-27T01:29:13.154Z,-3.52
2022-11-27T01:31:41.494Z,-3.63
2022-11-27T01:34:15.370Z,-3.92
2022-11-27T01:36:43.817Z,-4.04
2022-11-27T01:39:20.582Z,-4.42
2022-11-27T01:41:49.565Z,-4.58
2022-11-27T01:44:27.551Z,-3.75
2022-11-27T01:47:03.980Z,-3.96
2022-11-27T01:49:41.186Z,-4.09
2022-11-27T01:52:13.985Z,-3.34
2022-11-27T01:54:54.235Z,-4.06
2022-11-27T01:57:27.184Z,-3.87
2022-11-27T01:59:58.471Z,-3.46
2022-11-27T02:02:26.971Z,-4.04
2022-11-27T02:04:59.259Z,-3.97
2022-11-27T02:07:27.337Z,-3.64
2022-11-27T02:09:58.356Z,-3.53
2022-11-27T02:13:02.137Z,-3.72
2022-11-27T02:15:49.064Z,-3.94
2022-11-27T02:18:20.021Z,-3.86
2022-11-27T02:21:12.133Z,-3.42
2022-11-27T02:24:01.496Z,-3.58
2022-11-27T02:26:52.594Z,-3.40
2022-11-27T02:29:24.131Z,-3.74
2022-11-27T02:32:19.935Z,-3.47
2022-11-27T02:35:20.239Z,-3.57
2022-11-27T02:37:57.565Z,-4.14
2022-11-27T02:40:39.327Z,-4.13
2022-11-27T02:43:19.204Z,-3.76
2022-11-27T02:45:50.199Z,-3.07
2022-11-27T02:48:23.492Z,-3.57
2022-11-27T02:50:53.512Z,-3.48
2022-11-27T02:53:26.835Z,-3.72
2022-11-27T02:55:56.456Z,-3.81
2022-11-27T02:58:28.235Z,-4.06
2022-11-27T03:00:58.116Z,-3.34
2022-11-27T03:03:34.268Z,-3.83
2022-11-27T03:06:10.075Z,-4.23
2022-11-27T03:09:10.726Z,-3.59
2022-11-27T03:11:40.176Z,-3.96
2022-11-27T03:14:10.602Z,-4.07
2022-11-27T03:16:52.121Z,-3.43
2022-11-27T03:19:27.155Z,-4.00
2022-11-27T03:22:01.171Z,-3.61
2022-11-27T03:24:35.334Z,-3.60
2022-11-27T03:27:05.911Z,-3.61
2022-11-27T03:29:57.056Z,-3.95
2022-11-27T03:32:30.718Z,-3.35
2022-11-27T03:34:58.713Z,-3.87
2022-11-27T03:37:27.897Z,-3.43
2022-11-27T03:39:56.283Z,-3.22
2022-11-27T03:42:31.231Z,-3.39
2022-11-27T03:45:08.741Z,-4.09
2022-11-27T03:47:51.744Z,-3.51
2022-11-27T03:50:52.248Z,-3.66
2022-11-27T03:53:26.271Z,-4.06
2022-11-27T03:56:00.999Z,-3.62
2022-11-27T03:58:35.551Z,-3.40
2022-11-27T04:01:06.806Z,-3.93
2022-11-27T04:03:36.330Z,-3.18
2022-11-27T04:06:04.827Z,-3.83
2022-11-27T04:08:32.752Z,-3.34
2022-11-27T04:11:00.940Z,-3.52
2022-11-27T04:13:28.843Z,-3.55
2022-11-27T04:15:56.800Z,-3.35
2022-11-27T04:18:25.026Z,-3.56
2022-11-27T04:20:52.975Z,-3.91
2022-11-27T04:23:20.793Z,-3.37
2022-11-27T04:25:49.893Z,-3.59
2022-11-27T04:28:24.273Z,-2.94
2022-11-27T04:30:55.075Z,-3.31
2022-11-27T04:33:23.757Z,-3.52
2022-11-27T04:35:52.591Z,-4.08
2022-11-27T04:38:23.710Z,-3.46
2022-11-27T04:40:58.311Z,-3.61
2022-11-27T04:43:26.564Z,-3.13
2022-11-27T04:45:54.462Z,-3.73
2022-11-27T04:48:22.247Z,-3.02
2022-11-27T04:50:50.478Z,-3.34
2022-11-27T04:53:18.352Z,-3.29
2022-11-27T04:55:46.214Z,-2.90
2022-11-27T04:58:14.405Z,-3.46
2022-11-27T05:00:42.106Z,-3.37
2022-11-27T05:03:10.103Z,-3.15
2022-11-27T05:05:38.748Z,-2.59
2022-11-27T05:08:10.553Z,-2.65
2022-11-27T05:10:38.811Z,-2.68
2022-11-27T05:13:06.623Z,-2.61
2022-11-27T05:15:34.434Z,-2.98
2022-11-27T05:18:02.587Z,-2.95
2022-11-27T05:20:30.539Z,-2.93
2022-11-27T05:22:58.389Z,-3.05
2022-11-27T05:25:26.584Z,-3.02
2022-11-27T05:27:57.588Z,-3.18
2022-11-27T05:30:25.468Z,-3.12
2022-11-27T05:32:56.825Z,-3.32
2022-11-27T05:35:24.529Z,-2.93
2022-11-27T05:37:52.384Z,-3.18
2022-11-27T05:40:21.094Z,-2.95
2022-11-27T05:42:48.924Z,-3.30
2022-11-27T05:45:16.630Z,-2.93
2022-11-27T05:47:44.838Z,-3.50
2022-11-27T05:50:12.712Z,-3.19
2022-11-27T05:52:40.631Z,-3.20
2022-11-27T05:55:09.474Z,-3.69
2022-11-27T05:57:37.268Z,-3.55
2022-11-27T06:00:07.895Z,-2.83
2022-11-27T06:02:37.163Z,-3.12
2022-11-27T06:05:05.382Z,-3.47
2022-11-27T06:07:33.090Z,-3.16
2022-11-27T06:10:01.386Z,-3.27
2022-11-27T06:12:33.206Z,-2.68
2022-11-27T06:15:01.465Z,-2.88
2022-11-27T06:17:31.056Z,-3.02
2022-11-27T06:19:59.176Z,-3.00
2022-11-27T06:22:27.434Z,-3.08
2022-11-27T06:24:55.933Z,-3.17
2022-11-27T06:27:26.847Z,-2.98
2022-11-27T06:29:55.070Z,-2.91
2022-11-27T06:32:22.781Z,-2.64
2022-11-27T06:34:50.657Z,-2.92
2022-11-27T06:37:18.953Z,-2.94
2022-11-27T06:39:48.744Z,-2.99
2022-11-27T06:42:16.722Z,-2.98
2022-11-27T06:44:45.062Z,-2.91
2022-11-27T06:47:13.075Z,-2.69
2022-11-27T06:49:41.065Z,-2.77
2022-11-27T06:52:09.438Z,-2.54
2022-11-27T06:54:40.398Z,-2.50
2022-11-27T06:57:08.437Z,-2.34
2022-11-27T06:59:36.619Z,-2.16
2022-11-27T07:02:04.542Z,-2.33
2022-11-27T07:04:33.742Z,-2.56
2022-11-27T07:07:04.906Z,-2.33
2022-11-27T07:09:32.727Z,-2.19
2022-11-27T07:12:00.438Z,-2.30
2022-11-27T07:14:28.549Z,-2.40
2022-11-27T07:16:59.520Z,-2.12
2022-11-27T07:19:27.284Z,-2.42
2022-11-27T07:21:55.605Z,-2.41
2022-11-27T07:24:23.635Z,-2.13
2022-11-27T07:26:51.499Z,-2.13
2022-11-27T07:29:19.572Z,-2.09
2022-11-27T07:31:47.512Z,-2.19
2022-11-27T07:34:21.405Z,-2.19
2022-11-27T07:36:50.449Z,-2.09
2022-11-27T07:39:33.886Z,-2.07
2022-11-27T07:42:36.399Z,-1.92
2022-11-27T07:44:55.885Z,-1.76
2022-11-27T07:47:24.212Z,-1.56
2022-11-27T07:49:52.244Z,-1.49
2022-11-27T07:52:20.082Z,-1.42
2022-11-27T07:54:48.291Z,-1.38
2022-11-27T07:57:16.077Z,-1.42
2022-11-27T07:59:47.629Z,-1.43
2022-11-27T08:02:16.443Z,-1.41
2022-11-27T08:04:44.997Z,-1.42
2022-11-27T08:07:13.360Z,-1.39
2022-11-27T08:09:41.156Z,-1.32
2022-11-27T08:12:09.318Z,-1.33
2022-11-27T08:14:37.248Z,-1.35
2022-11-27T08:17:05.054Z,-1.34
2022-11-27T08:19:33.613Z,-1.32
2022-11-27T08:24:48.428Z,-1.33
2022-11-27T08:30:02.742Z,-1.38
2022-11-27T08:32:31.366Z,-1.36
2022-11-27T08:34:59.381Z,-1.29
2022-11-27T08:37:27.778Z,-1.35
2022-11-27T08:39:55.684Z,-1.25
2022-11-27T08:42:23.912Z,-1.23
2022-11-27T08:44:52.345Z,-1.14
2022-11-27T08:47:20.146Z,-1.16
2022-11-27T08:49:48.065Z,-1.06
2022-11-27T08:52:16.432Z,-1.07
2022-11-27T08:54:44.293Z,-1.04
2022-11-27T08:57:12.306Z,-0.96
2022-11-27T08:59:43.875Z,-0.90
2022-11-27T09:02:14.631Z,-0.95
2022-11-27T09:04:43.020Z,-1.00
2022-11-27T09:07:14.843Z,-1.05
2022-11-27T09:09:43.365Z,-1.12
2022-11-27T09:12:11.106Z,-1.01
2022-11-27T09:14:42.241Z,-0.92
2022-11-27T09:17:13.546Z,-0.88
2022-11-27T09:19:41.511Z,-0.93
2022-11-27T09:22:09.397Z,-1.02
2022-11-27T09:24:37.616Z,-0.96
2022-11-27T09:27:08.309Z,-0.90
2022-11-27T09:29:36.534Z,-0.95
2022-11-27T09:32:06.008Z,-0.96
2022-11-27T09:34:37.490Z,-0.96
2022-11-27T09:37:06.242Z,-0.97
2022-11-27T09:39:37.529Z,-0.99
2022-11-27T09:42:09.975Z,-1.06
2022-11-27T09:44:41.049Z,-1.08
2022-11-27T09:47:41.927Z,-1.03
2022-11-27T09:50:30.461Z,-1.10
2022-11-27T09:53:23.746Z,-1.11
2022-11-27T09:55:58.573Z,-1.11
2022-11-27T09:58:39.815Z,-1.11
2022-11-27T10:01:28.596Z,-1.08
2022-11-27T10:04:06.988Z,-1.05
2022-11-27T10:06:44.185Z,-1.06
2022-11-27T10:09:25.644Z,-1.08
2022-11-27T10:12:01.069Z,-1.25
2022-11-27T10:14:47.463Z,-1.12
2022-11-27T10:17:26.192Z,-1.21
2022-11-27T10:20:18.744Z,-1.31
2022-11-27T10:22:57.043Z,-1.19
2022-11-27T10:25:44.629Z,-1.36
2022-11-27T10:28:41.998Z,-1.15
2022-11-27T10:31:45.768Z,-1.04
2022-11-27T10:34:38.816Z,-1.06
2022-11-27T10:37:16.355Z,-1.09
2022-11-27T10:39:54.398Z,-1.20
2022-11-27T10:42:32.689Z,-1.05
2022-11-27T10:45:07.820Z,-1.08
2022-11-27T10:47:38.741Z,-1.08
2022-11-27T10:50:14.501Z,-1.04
2022-11-27T10:52:59.853Z,-1.22
2022-11-27T10:55:46.387Z,-1.19
2022-11-27T10:58:38.804Z,-1.16
2022-11-27T11:01:21.262Z,-1.07
2022-11-27T11:03:49.444Z,-1.08
2022-11-27T11:06:21.242Z,-1.18
2022-11-27T11:09:16.357Z,-1.14
2022-11-27T11:11:44.375Z,-1.19
2022-11-27T11:14:24.847Z,-1.19
2022-11-27T11:16:54.830Z,-1.10
2022-11-27T11:19:26.375Z,-1.30
2022-11-27T11:21:54.365Z,-1.11
2022-11-27T11:24:31.884Z,-1.22
2022-11-27T11:27:05.422Z,-1.19
2022-11-27T11:29:42.335Z,-1.22
2022-11-27T11:32:12.007Z,-1.17
2022-11-27T11:34:46.235Z,-1.12
2022-11-27T11:37:29.257Z,-1.24
2022-11-27T11:40:04.308Z,-1.47
2022-11-27T11:42:35.043Z,-1.56
2022-11-27T11:45:03.003Z,-1.28
2022-11-27T11:47:32.167Z,-1.28
2022-11-27T11:50:01.455Z,-1.48
2022-11-27T11:52:36.725Z,-1.29
2022-11-27T11:55:25.547Z,-1.50
2022-11-27T11:58:10.554Z,-1.32
2022-11-27T12:01:18.963Z,-1.13
2022-11-27T12:03:58.749Z,-1.24
2022-11-27T12:06:46.162Z,-1.31
2022-11-27T12:09:33.030Z,-1.42
2022-11-27T12:12:14.063Z,-1.25
2022-11-27T12:14:50.596Z,-1.30
2022-11-27T12:17:57.116Z,-1.49
2022-11-27T12:20:51.142Z,-1.16
2022-11-27T12:23:39.928Z,-1.36
2022-11-27T12:26:32.924Z,-1.34
2022-11-27T12:29:06.263Z,-1.29
2022-11-27T12:31:46.474Z,-1.36
2022-11-27T12:34:38.630Z,-1.16
2022-11-27T12:37:30.899Z,-1.33
2022-11-27T12:40:19.881Z,-1.28
2022-11-27T12:43:19.490Z,-1.33
2022-11-27T12:45:59.434Z,-1.17
2022-11-27T12:48:43.689Z,-1.40
2022-11-27T12:51:49.569Z,-1.52
2022-11-27T12:54:30.204Z,-1.75
2022-11-27T12:57:07.694Z,-1.53
2022-11-27T12:59:40.498Z,-1.50
2022-11-27T13:02:46.890Z,-1.64
2022-11-27T13:05:29.192Z,-2.21
2022-11-27T13:08:16.319Z,-1.84
2022-11-27T13:10:51.869Z,-2.14
2022-11-27T13:13:38.101Z,-1.56
2022-11-27T13:16:13.479Z,-1.51
2022-11-27T13:18:47.209Z,-2.02
2022-11-27T13:21:20.727Z,-1.97
2022-11-27T13:23:48.588Z,-1.54
2022-11-27T13:32:30.709Z,-1.52
2022-11-27T13:35:03.158Z,-1.31
2022-11-27T13:37:37.117Z,-1.46
2022-11-27T13:40:06.982Z,-1.34
2022-11-27T13:42:37.269Z,-1.39
2022-11-27T13:45:20.206Z,-1.32
2022-11-27T13:47:49.660Z,-1.32
2022-11-27T13:50:20.904Z,-1.28
2022-11-27T13:53:00.362Z,-1.45
2022-11-27T13:55:29.953Z,-1.52
2022-11-27T13:57:59.910Z,-1.25
2022-11-27T14:00:40.264Z,-1.41
2022-11-27T14:03:22.074Z,-1.67
2022-11-27T14:05:49.803Z,-1.46
2022-11-27T14:08:24.382Z,-1.29
2022-11-27T14:11:04.237Z,-1.25
2022-11-27T14:13:39.750Z,-1.36
2022-11-27T14:16:35.844Z,-1.36
2022-11-27T14:19:23.357Z,-1.26
2022-11-27T14:21:51.350Z,-1.32
2022-11-27T14:24:28.467Z,-1.48
2022-11-27T14:26:56.401Z,-1.55
2022-11-27T14:29:29.481Z,-1.39
2022-11-27T14:32:00.300Z,-1.24
2022-11-27T14:34:35.205Z,-1.33
2022-11-27T14:37:03.016Z,-1.35
2022-11-27T14:39:38.327Z,-1.59
2022-11-27T14:42:08.395Z,-1.35
2022-11-27T14:44:36.572Z,-1.30
2022-11-27T14:47:08.746Z,-1.13
2022-11-27T14:49:37.015Z,-1.29
2022-11-27T14:52:07.796Z,-1.20
2022-11-27T14:54:39.426Z,-1.33
2022-11-27T14:57:14.526Z,-1.27
2022-11-27T14:59:45.895Z,-1.24
2022-11-27T15:02:13.756Z,-1.27
2022-11-27T15:04:44.559Z,-1.21
2022-11-27T15:07:25.758Z,-1.50
2022-11-27T15:09:59.439Z,-1.42
2022-11-27T15:12:37.121Z,-1.60
2022-11-27T15:15:30.066Z,-1.69
2022-11-27T15:18:09.395Z,-1.39
2022-11-27T15:20:46.126Z,-1.45
2022-11-27T15:23:18.546Z,-1.45
2022-11-27T15:25:48.021Z,-1.42
2022-11-27T15:28:37.141Z,-1.39
2022-11-27T15:31:33.286Z,-1.43
2022-11-27T15:34:04.894Z,-1.58
2022-11-27T15:36:43.758Z,-1.31
2022-11-27T15:39:21.863Z,-1.55
2022-11-27T15:41:52.068Z,-1.64
2022-11-27T15:44:19.903Z,-1.35
2022-11-27T15:46:47.997Z,-1.39
2022-11-27T15:49:16.239Z,-1.35
2022-11-27T15:51:44.099Z,-1.49
2022-11-27T15:54:11.940Z,-1.38
2022-11-27T15:56:40.171Z,-1.52
2022-11-27T15:59:08.226Z,-1.50
2022-11-27T16:01:36.043Z,-1.43
2022-11-27T16:04:04.454Z,-1.52
2022-11-27T16:06:32.317Z,-1.80
2022-11-27T16:09:01.863Z,-1.64
2022-11-27T16:11:31.874Z,-1.56
2022-11-27T16:13:59.761Z,-1.39
2022-11-27T16:16:28.288Z,-1.55
2022-11-27T16:19:01.175Z,-1.78
2022-11-27T16:21:30.437Z,-1.39
2022-11-27T16:24:00.302Z,-1.63
2022-11-27T16:26:29.061Z,-1.39
2022-11-27T16:28:57.584Z,-1.43
2022-11-27T16:31:26.768Z,-1.49
2022-11-27T16:33:57.641Z,-1.35
2022-11-27T16:36:26.187Z,-1.47
2022-11-27T16:38:55.212Z,-1.40
2022-11-27T16:41:25.428Z,-1.38
2022-11-27T16:43:56.293Z,-1.42
2022-11-27T16:46:27.894Z,-1.47
2022-11-27T16:48:59.110Z,-1.49
2022-11-27T16:51:34.992Z,-1.44
2022-11-27T16:54:06.335Z,-1.52
2022-11-27T16:56:35.475Z,-1.45
2022-11-27T16:59:09.316Z,-1.46
2022-11-27T17:01:41.498Z,-1.55
2022-11-27T17:04:16.692Z,-1.69
2022-11-27T17:06:49.771Z,-1.45
2022-11-27T17:09:18.734Z,-1.67
2022-11-27T17:11:51.224Z,-1.49
2022-11-27T17:14:22.139Z,-1.52
2022-11-27T17:16:50.366Z,-1.85
2022-11-27T17:19:19.231Z,-1.68
2022-11-27T17:21:48.233Z,-1.64
2022-11-27T17:24:18.671Z,-1.56
2022-11-27T17:26:48.792Z,-1.51
2022-11-27T17:29:22.000Z,-1.63
2022-11-27T17:31:51.134Z,-1.56
2022-11-27T17:34:21.035Z,-1.47
2022-11-27T17:36:53.834Z,-1.53
2022-11-27T17:39:25.814Z,-1.73
2022-11-27T17:41:54.269Z,-1.62
2022-11-27T17:44:22.666Z,-1.47
2022-11-27T17:46:50.993Z,-1.47
2022-11-27T17:49:19.957Z,-1.54
2022-11-27T17:51:50.738Z,-1.53
2022-11-27T17:54:19.044Z,-1.46
2022-11-27T17:56:51.660Z,-1.55
2022-11-27T17:59:21.104Z,-1.72
2022-11-27T18:01:53.128Z,-1.64
2022-11-27T18:04:21.996Z,-1.74
2022-11-27T18:06:50.195Z,-2.09
2022-11-27T18:09:17.908Z,-1.95
2022-11-27T18:11:46.349Z,-1.72
2022-11-27T18:14:14.487Z,-1.61
2022-11-27T18:16:42.979Z,-1.52
2022-11-27T18:19:14.777Z,-1.71
2022-11-27T18:21:42.833Z,-1.65
2022-11-27T18:24:28.183Z,-1.61
2022-11-27T18:27:12.291Z,-1.60
2022-11-27T18:29:43.261Z,-1.51
2022-11-27T18:32:13.199Z,-1.51
2022-11-27T18:34:43.030Z,-1.54
2022-11-27T18:37:12.420Z,-1.48
2022-11-27T18:39:41.047Z,-1.77
2022-11-27T18:42:10.091Z,-1.91
2022-11-27T18:44:44.317Z,-1.65
2022-11-27T18:47:16.049Z,-1.55
2022-11-27T18:49:44.928Z,-1.65
2022-11-27T18:55:01.077Z,-1.77
2022-11-27T19:00:17.700Z,-1.53
2022-11-27T19:02:46.083Z,-1.59
2022-11-27T19:05:14.308Z,-1.69
2022-11-27T19:07:43.121Z,-1.81
2022-11-27T19:10:11.729Z,-1.65
2022-11-27T19:12:40.443Z,-1.67
2022-11-27T19:15:09.184Z,-1.64
2022-11-27T19:17:37.344Z,-1.54
2022-11-27T19:20:08.039Z,-1.55
2022-11-27T19:22:39.109Z,-1.58
2022-11-27T19:25:08.121Z,-1.64
2022-11-27T19:27:36.304Z,-1.59
2022-11-27T19:30:08.238Z,-1.85
2022-11-27T19:32:36.613Z,-1.88
2022-11-27T19:35:07.305Z,-1.56
2022-11-27T19:37:37.239Z,-1.53
2022-11-27T19:40:07.041Z,-1.91
2022-11-27T19:42:35.014Z,-1.75
2022-11-27T19:45:03.027Z,-1.82
2022-11-27T19:47:31.730Z,-2.08
2022-11-27T19:49:59.701Z,-1.74
2022-11-27T19:52:27.630Z,-1.87
2022-11-27T19:54:55.911Z,-1.78
2022-11-27T19:57:24.412Z,-1.66
2022-11-27T19:59:52.294Z,-1.90
2022-11-27T20:02:20.580Z,-1.63
2022-11-27T20:04:49.006Z,-1.52
2022-11-27T20:07:17.034Z,-1.69
2022-11-27T20:09:44.851Z,-1.76
2022-11-27T20:12:13.282Z,-1.56
2022-11-27T20:14:41.613Z,-1.60
2022-11-27T20:17:09.648Z,-1.51
2022-11-27T20:19:39.265Z,-1.74
2022-11-27T20:22:07.292Z,-1.65
2022-11-27T20:24:38.220Z,-1.61
2022-11-27T20:27:13.217Z,-1.68
2022-11-27T20:29:41.355Z,-1.47
2022-11-27T20:32:09.485Z,-1.71
2022-11-27T20:34:39.263Z,-1.56
2022-11-27T20:37:09.084Z,-1.58
2022-11-27T20:39:38.710Z,-1.69
2022-11-27T20:42:06.948Z,-1.73
2022-11-27T20:44:34.855Z,-1.50
2022-11-27T20:47:03.228Z,-1.45
2022-11-27T20:49:33.975Z,-1.52
2022-11-27T20:52:04.320Z,-1.52
2022-11-27T20:54:32.642Z,-1.59
2022-11-27T20:57:01.224Z,-1.51
2022-11-27T20:59:29.220Z,-1.63
2022-11-27T21:01:57.847Z,-1.63
2022-11-27T21:04:26.881Z,-1.74
2022-11-27T21:06:54.939Z,-1.67
2022-11-27T21:09:24.346Z,-1.71
2022-11-27T21:11:52.163Z,-1.75
2022-11-27T21:14:20.137Z,-1.64
2022-11-27T21:16:51.460Z,-1.86
2022-11-27T21:19:22.169Z,-1.67
2022-11-27T21:21:51.773Z,-1.55
2022-11-27T21:24:20.975Z,-1.59
2022-11-27T21:26:49.003Z,-1.57
2022-11-27T21:29:17.826Z,-1.51
2022-11-27T21:31:47.440Z,-1.65
2022-11-27T21:34:16.408Z,-1.59
2022-11-27T21:36:48.056Z,-1.56
2022-11-27T21:39:21.996Z,-1.65
2022-11-27T21:41:53.256Z,-1.56
2022-11-27T21:44:22.178Z,-1.56
2022-11-27T21:46:50.572Z,-1.70
2022-11-27T21:49:20.123Z,-1.64
2022-11-27T21:51:51.714Z,-1.70
2022-11-27T21:54:23.251Z,-1.66
2022-11-27T21:56:53.985Z,-1.60
2022-11-27T21:59:22.331Z,-1.59
2022-11-27T22:01:53.326Z,-1.66
2022-11-27T22:04:21.619Z,-1.77
2022-11-27T22:06:51.693Z,-1.65
2022-11-27T22:09:19.571Z,-1.74
2022-11-27T22:11:47.847Z,-1.74
2022-11-27T22:14:16.878Z,-1.70
2022-11-27T22:16:46.578Z,-1.71
2022-11-27T22:19:15.936Z,-1.72
2022-11-27T22:21:44.911Z,-1.71
2022-11-27T22:24:18.262Z,-1.71
2022-11-27T22:26:48.652Z,-1.73
2022-11-27T22:29:17.238Z,-1.74
2022-11-27T22:31:45.124Z,-1.67
2022-11-27T22:34:17.350Z,-1.67
2022-11-27T22:36:46.087Z,-1.78
2022-11-27T22:39:14.399Z,-1.75
2022-11-27T22:41:43.047Z,-1.76
2022-11-27T22:44:21.149Z,-1.83
2022-11-27T22:46:49.682Z,-1.91
2022-11-27T22:49:19.023Z,-1.85
2022-11-27T22:51:47.745Z,-1.78
2022-11-27T22:54:17.444Z,-1.86
2022-11-27T22:56:46.481Z,-1.80
2022-11-27T23:02:04.472Z,-1.96
2022-11-27T23:04:37.380Z,-1.98
2022-11-27T23:07:06.607Z,-1.81
2022-11-27T23:09:35.259Z,-1.86
2022-11-27T23:12:03.204Z,-1.87
2022-11-27T23:14:31.361Z,-1.78
2022-11-27T23:16:59.296Z,-1.87
2022-11-27T23:19:27.215Z,-1.88
2022-11-27T23:21:55.497Z,-1.84
2022-11-27T23:24:23.690Z,-1.91
2022-11-27T23:26:51.534Z,-1.95
2022-11-27T23:29:19.604Z,-1.87
2022-11-27T23:31:47.547Z,-1.88
2022-11-27T23:34:16.310Z,-1.83
2022-11-27T23:36:44.565Z,-1.89
2022-11-27T23:39:13.814Z,-1.89
2022-11-27T23:41:42.045Z,-2.13
2022-11-27T23:44:10.315Z,-1.90
2022-11-27T23:46:38.069Z,-1.93
2022-11-27T23:49:06.002Z,-2.01
2022-11-27T23:51:34.459Z,-1.93
2022-11-27T23:54:09.526Z,-1.88
2022-11-27T23:56:38.822Z,-1.86
2022-11-27T23:59:09.705Z,-1.86
